Bookmark and Share
Track history (hours):
 

Jork Reliance

Last reported at 2014-Apr-20 04:33 UTC. Time now 2014-Apr-20 05:47 UTC.
Position N 35°59' W 005°25'.

Length 141 m; draft 6.3 m.

Type: Ship (hazmat cat A). MMSI: 305033000.

NotesDate/timePositionNaut miles runAvg speedWind from/ knotsBaromVisibWave heightAir tempDewpointWater temp
2014-Apr-20 04:33N 35°59' W 005°25'1712.4
2014-Apr-20 03:11N 35°53' W 005°45'1013.2
2014-Apr-20 02:26N 35°51' W 005°56'  
2014-Apr-12 21:22N 50°09' W 001°58'1315.8
2014-Apr-12 20:34N 50°13' W 001°39'1514.7
2014-Apr-12 19:33N 50°17' W 001°17'1413.7
2014-Apr-12 18:33N 50°21' W 000°57'1513.9
2014-Apr-12 17:28N 50°25' W 000°34'2015.6
2014-Apr-12 16:12N 50°30' W 000°04'1116.9
2014-Apr-12 15:33N 50°33' E 000°13'1717.5
2014-Apr-12 14:33N 50°40' E 000°38'1817.5
2014-Apr-12 13:33N 50°50' E 001°00'1616.4
2014-Apr-12 12:33N 51°01' E 001°21'1514.8
2014-Apr-12 11:34N 51°11' E 001°37'1414.0
2014-Apr-12 10:33N 51°25' E 001°31'1414.0
2014-Apr-12 09:33N 51°29' E 001°10'1514.9
2014-Apr-12 08:33N 51°29' E 000°46'1312.6
2014-Apr-12 07:33N 51°27' E 000°25'3 3.5
2014-Apr-12 06:34N 51°27' E 000°20'0 0.0
2014-Apr-12 05:34N 51°27' E 000°20'0 0.0
2014-Apr-12 04:34N 51°27' E 000°20'0 0.0
2014-Apr-12 03:34N 51°27' E 000°20'0 0.0
2014-Apr-12 02:34N 51°27' E 000°20'0 0.0
2014-Apr-12 01:34N 51°27' E 000°20'0 0.0
2014-Apr-12 00:34N 51°27' E 000°20'0 0.0
2014-Apr-11 23:34N 51°27' E 000°20'4 3.9
2014-Apr-11 22:34N 51°27' E 000°26'1515.2
2014-Apr-11 21:33N 51°30' E 000°50'1717.5
2014-Apr-11 20:34N 51°29' E 001°18'1110.6
2014-Apr-11 19:33N 51°28' E 001°36'1212.4
2014-Apr-11 18:33N 51°35' E 001°52'11 9.3
2014-Apr-11 17:19N 51°41' E 002°08'911.5
2014-Apr-11 16:30N 51°47' E 002°20'3310.3
2014-Apr-11 13:16N 52°02' E 003°08'710.5
2014-Apr-11 12:34N 52°03' E 003°20'1110.2
2014-Apr-11 11:32N 52°04' E 003°37'1010.5
2014-Apr-11 10:33N 52°03' E 003°53'1413.7
2014-Apr-11 09:33N 51°56' E 004°13'8 8.2
2014-Apr-11 08:32N 51°53' E 004°25'0 0.0
2014-Apr-11 06:25N 51°53' E 004°25'0 0.0
2014-Apr-11 05:19N 51°53' E 004°25'0 0.0
2014-Apr-11 04:31N 51°53' E 004°25'0 0.0
2014-Apr-11 03:31N 51°53' E 004°25'0 0.0
2014-Apr-11 02:19N 51°53' E 004°25'0 0.0
2014-Apr-11 01:25N 51°53' E 004°25'3 3.5
2014-Apr-11 00:33N 51°54' E 004°21'1313.2
2014-Apr-10 23:33N 51°60' E 004°02'1313.2
2014-Apr-10 22:33N 52°08' E 003°45'3 2.4
2014-Apr-10 21:31N 52°10' E 003°42'0 0.0
2014-Apr-10 20:31N 52°10' E 003°42'0 0.0
2014-Apr-10 19:33N 52°10' E 003°42'9 9.0
2014-Apr-10 18:33N 52°18' E 003°47'1616.4
2014-Apr-10 17:33N 52°34' E 003°52'1414.3
2014-Apr-10 16:33N 52°48' E 003°57'1313.3
2014-Apr-10 15:33N 53°00' E 004°05'1414.3
2014-Apr-10 14:33N 53°10' E 004°23'1414.3
2014-Apr-10 13:33N 53°23' E 004°34'1313.5
2014-Apr-10 12:33N 53°31' E 004°51'1414.3
2014-Apr-10 11:33N 53°36' E 005°14'1414.4
2014-Apr-10 10:33N 53°41' E 005°36'1515.3
2014-Apr-10 09:33N 53°46' E 006°01'2216.3
2014-Apr-10 08:13N 53°52' E 006°37'1116.9
2014-Apr-10 07:33N 53°55' E 006°55'1616.4
2014-Apr-10 06:33N 53°59' E 007°22'1515.3
2014-Apr-10 05:33N 54°02' E 007°48'1515.2
2014-Apr-10 04:34N 54°00' E 008°13'  

Dump ship's entire track history

sailing weather and tide predictions

Jork Reliance — V2CL2 — position and weather